sensor_id;sensor_type;location;lat;lon;timestamp;pressure;altitude;pressure_sealevel;temperature;humidity
37904;BME280;23738;50.422;18.758;2023-06-22T00:00:16;98650.54;;;20.80;73.35
37904;BME280;23738;50.422;18.758;2023-06-22T00:02:43;98651.81;;;20.76;73.30
37904;BME280;23738;50.422;18.758;2023-06-22T00:05:10;98652.60;;;20.72;73.54
37904;BME280;23738;50.422;18.758;2023-06-22T00:07:38;98651.73;;;20.70;73.92
37904;BME280;23738;50.422;18.758;2023-06-22T00:10:07;98652.38;;;20.70;74.02
37904;BME280;23738;50.422;18.758;2023-06-22T00:12:34;98659.83;;;20.70;74.09
37904;BME280;23738;50.422;18.758;2023-06-22T00:15:02;98655.95;;;20.68;74.29
37904;BME280;23738;50.422;18.758;2023-06-22T00:17:29;98652.69;;;20.69;74.42
37904;BME280;23738;50.422;18.758;2023-06-22T00:19:57;98653.71;;;20.69;74.36
37904;BME280;23738;50.422;18.758;2023-06-22T00:22:25;98646.88;;;20.64;74.46
37904;BME280;23738;50.422;18.758;2023-06-22T00:24:55;98644.55;;;20.61;74.48
37904;BME280;23738;50.422;18.758;2023-06-22T00:27:22;98650.06;;;20.57;74.52
37904;BME280;23738;50.422;18.758;2023-06-22T00:29:49;98643.92;;;20.52;74.21
37904;BME280;23738;50.422;18.758;2023-06-22T00:32:17;98641.34;;;20.49;74.42
37904;BME280;23738;50.422;18.758;2023-06-22T00:34:45;98646.60;;;20.50;74.56
37904;BME280;23738;50.422;18.758;2023-06-22T00:37:12;98653.52;;;20.49;74.53
37904;BME280;23738;50.422;18.758;2023-06-22T00:39:40;98663.36;;;20.45;74.60
37904;BME280;23738;50.422;18.758;2023-06-22T00:42:07;98664.85;;;20.43;74.59
37904;BME280;23738;50.422;18.758;2023-06-22T00:44:35;98661.77;;;20.38;74.74
37904;BME280;23738;50.422;18.758;2023-06-22T00:47:03;98670.07;;;20.38;74.68
37904;BME280;23738;50.422;18.758;2023-06-22T00:49:30;98672.85;;;20.36;74.85
37904;BME280;23738;50.422;18.758;2023-06-22T00:51:58;98671.56;;;20.36;75.08
37904;BME280;23738;50.422;18.758;2023-06-22T00:54:26;98683.48;;;20.38;75.13
37904;BME280;23738;50.422;18.758;2023-06-22T00:56:55;98680.23;;;20.39;75.45
37904;BME280;23738;50.422;18.758;2023-06-22T00:59:25;98678.14;;;20.40;75.41
37904;BME280;23738;50.422;18.758;2023-06-22T01:01:53;98675.66;;;20.38;75.50
37904;BME280;23738;50.422;18.758;2023-06-22T01:04:21;98679.36;;;20.39;75.69
37904;BME280;23738;50.422;18.758;2023-06-22T01:06:54;98683.79;;;20.41;75.78
37904;BME280;23738;50.422;18.758;2023-06-22T01:09:30;98678.58;;;20.40;75.63
37904;BME280;23738;50.422;18.758;2023-06-22T01:12:03;98682.16;;;20.39;75.83
37904;BME280;23738;50.422;18.758;2023-06-22T01:14:37;98679.30;;;20.37;75.76
37904;BME280;23738;50.422;18.758;2023-06-22T01:17:09;98679.34;;;20.31;75.70
37904;BME280;23738;50.422;18.758;2023-06-22T01:19:45;98677.11;;;20.26;75.78
37904;BME280;23738;50.422;18.758;2023-06-22T01:22:16;98680.22;;;20.25;75.76
37904;BME280;23738;50.422;18.758;2023-06-22T01:24:55;98678.88;;;20.24;75.89
37904;BME280;23738;50.422;18.758;2023-06-22T01:27:36;98676.19;;;20.25;75.89
37904;BME280;23738;50.422;18.758;2023-06-22T01:30:09;98667.48;;;20.22;75.98
37904;BME280;23738;50.422;18.758;2023-06-22T01:32:39;98668.32;;;20.17;75.94
37904;BME280;23738;50.422;18.758;2023-06-22T01:35:09;98673.96;;;20.15;76.02
37904;BME280;23738;50.422;18.758;2023-06-22T01:37:38;98670.63;;;20.13;76.40
37904;BME280;23738;50.422;18.758;2023-06-22T01:40:08;98664.46;;;20.12;76.30
37904;BME280;23738;50.422;18.758;2023-06-22T01:42:37;98670.02;;;20.08;76.23
37904;BME280;23738;50.422;18.758;2023-06-22T01:45:08;98666.48;;;20.04;76.35
37904;BME280;23738;50.422;18.758;2023-06-22T01:47:36;98674.20;;;20.03;76.13
37904;BME280;23738;50.422;18.758;2023-06-22T01:50:06;98672.39;;;19.96;76.06
37904;BME280;23738;50.422;18.758;2023-06-22T01:52:33;98676.86;;;19.92;76.14
37904;BME280;23738;50.422;18.758;2023-06-22T01:55:01;98676.45;;;19.88;76.14
37904;BME280;23738;50.422;18.758;2023-06-22T01:57:28;98674.02;;;19.85;76.13
37904;BME280;23738;50.422;18.758;2023-06-22T02:00:00;98673.60;;;19.80;76.03
37904;BME280;23738;50.422;18.758;2023-06-22T02:02:33;98674.86;;;19.78;76.09
37904;BME280;23738;50.422;18.758;2023-06-22T02:05:06;98676.14;;;19.76;76.41
37904;BME280;23738;50.422;18.758;2023-06-22T02:07:36;98679.39;;;19.75;76.61
37904;BME280;23738;50.422;18.758;2023-06-22T02:10:07;98686.15;;;19.75;76.57
37904;BME280;23738;50.422;18.758;2023-06-22T02:12:39;98687.83;;;19.69;76.48
37904;BME280;23738;50.422;18.758;2023-06-22T02:15:10;98687.19;;;19.66;76.56
37904;BME280;23738;50.422;18.758;2023-06-22T02:17:39;98681.21;;;19.63;76.58
37904;BME280;23738;50.422;18.758;2023-06-22T02:20:14;98689.67;;;19.60;76.68
37904;BME280;23738;50.422;18.758;2023-06-22T02:22:41;98691.29;;;19.57;76.58
37904;BME280;23738;50.422;18.758;2023-06-22T02:25:09;98696.05;;;19.56;76.65
37904;BME280;23738;50.422;18.758;2023-06-22T02:27:37;98699.42;;;19.57;77.02
37904;BME280;23738;50.422;18.758;2023-06-22T02:30:08;98700.00;;;19.59;76.98
37904;BME280;23738;50.422;18.758;2023-06-22T02:32:36;98695.98;;;19.59;76.91
37904;BME280;23738;50.422;18.758;2023-06-22T02:35:04;98699.02;;;19.58;77.09
37904;BME280;23738;50.422;18.758;2023-06-22T02:37:33;98704.86;;;19.53;76.90
37904;BME280;23738;50.422;18.758;2023-06-22T02:40:00;98714.69;;;19.46;76.87
37904;BME280;23738;50.422;18.758;2023-06-22T02:42:28;98716.49;;;19.41;76.71
37904;BME280;23738;50.422;18.758;2023-06-22T02:44:55;98715.36;;;19.41;76.93
37904;BME280;23738;50.422;18.758;2023-06-22T02:47:23;98718.12;;;19.42;77.25
37904;BME280;23738;50.422;18.758;2023-06-22T02:49:50;98717.71;;;19.44;77.29
37904;BME280;23738;50.422;18.758;2023-06-22T02:52:17;98723.85;;;19.42;77.26
37904;BME280;23738;50.422;18.758;2023-06-22T02:54:45;98727.89;;;19.40;77.40
37904;BME280;23738;50.422;18.758;2023-06-22T02:57:12;98729.77;;;19.40;77.57
37904;BME280;23738;50.422;18.758;2023-06-22T02:59:40;98730.08;;;19.44;77.74
37904;BME280;23738;50.422;18.758;2023-06-22T03:02:08;98736.48;;;19.45;77.64
37904;BME280;23738;50.422;18.758;2023-06-22T03:04:35;98743.86;;;19.45;77.92
37904;BME280;23738;50.422;18.758;2023-06-22T03:07:03;98746.29;;;19.42;77.76
37904;BME280;23738;50.422;18.758;2023-06-22T03:09:31;98747.32;;;19.39;77.85
37904;BME280;23738;50.422;18.758;2023-06-22T03:11:59;98750.08;;;19.40;77.92
37904;BME280;23738;50.422;18.758;2023-06-22T03:14:26;98752.06;;;19.45;77.96
37904;BME280;23738;50.422;18.758;2023-06-22T03:16:53;98754.20;;;19.47;77.98
37904;BME280;23738;50.422;18.758;2023-06-22T03:19:21;98758.81;;;19.48;78.01
37904;BME280;23738;50.422;18.758;2023-06-22T03:21:48;98756.46;;;19.49;77.91
37904;BME280;23738;50.422;18.758;2023-06-22T03:24:15;98758.02;;;19.50;77.80
37904;BME280;23738;50.422;18.758;2023-06-22T03:26:43;98755.16;;;19.48;77.84
37904;BME280;23738;50.422;18.758;2023-06-22T03:29:13;98754.11;;;19.45;77.77
37904;BME280;23738;50.422;18.758;2023-06-22T03:31:40;98751.86;;;19.45;77.94
37904;BME280;23738;50.422;18.758;2023-06-22T03:34:07;98756.27;;;19.46;77.98
37904;BME280;23738;50.422;18.758;2023-06-22T03:36:34;98756.60;;;19.47;78.03
37904;BME280;23738;50.422;18.758;2023-06-22T03:39:10;98758.13;;;19.46;77.95
37904;BME280;23738;50.422;18.758;2023-06-22T03:41:37;98758.23;;;19.45;78.19
37904;BME280;23738;50.422;18.758;2023-06-22T03:44:05;98756.96;;;19.46;78.24
37904;BME280;23738;50.422;18.758;2023-06-22T03:46:32;98759.80;;;19.50;78.25
37904;BME280;23738;50.422;18.758;2023-06-22T03:49:00;98768.27;;;19.54;78.43
37904;BME280;23738;50.422;18.758;2023-06-22T03:51:28;98772.81;;;19.58;78.60
37904;BME280;23738;50.422;18.758;2023-06-22T03:53:55;98773.19;;;19.62;78.74
37904;BME280;23738;50.422;18.758;2023-06-22T03:56:22;98769.83;;;19.65;78.84
37904;BME280;23738;50.422;18.758;2023-06-22T03:58:50;98770.85;;;19.75;79.13
37904;BME280;23738;50.422;18.758;2023-06-22T04:01:18;98771.02;;;19.86;79.29
37904;BME280;23738;50.422;18.758;2023-06-22T04:03:45;98770.98;;;19.99;79.66
37904;BME280;23738;50.422;18.758;2023-06-22T04:06:15;98770.42;;;20.09;79.84
37904;BME280;23738;50.422;18.758;2023-06-22T04:08:44;98774.17;;;20.12;80.09
37904;BME280;23738;50.422;18.758;2023-06-22T04:11:14;98773.56;;;20.13;80.39
37904;BME280;23738;50.422;18.758;2023-06-22T04:13:42;98780.27;;;20.18;80.64
37904;BME280;23738;50.422;18.758;2023-06-22T04:16:09;98773.91;;;20.23;80.98
37904;BME280;23738;50.422;18.758;2023-06-22T04:18:36;98780.98;;;20.32;81.32
37904;BME280;23738;50.422;18.758;2023-06-22T04:21:04;98779.33;;;20.39;81.59
37904;BME280;23738;50.422;18.758;2023-06-22T04:23:31;98782.80;;;20.50;81.99
37904;BME280;23738;50.422;18.758;2023-06-22T04:25:59;98785.27;;;20.59;82.24
37904;BME280;23738;50.422;18.758;2023-06-22T04:28:26;98786.27;;;20.70;82.41
37904;BME280;23738;50.422;18.758;2023-06-22T04:30:53;98785.77;;;20.84;82.70
37904;BME280;23738;50.422;18.758;2023-06-22T04:33:24;98780.89;;;20.96;82.66
37904;BME280;23738;50.422;18.758;2023-06-22T04:35:52;98777.15;;;21.01;82.85
37904;BME280;23738;50.422;18.758;2023-06-22T04:38:19;98780.20;;;21.07;82.88
37904;BME280;23738;50.422;18.758;2023-06-22T04:40:48;98781.55;;;21.11;82.95
37904;BME280;23738;50.422;18.758;2023-06-22T04:43:15;98787.22;;;21.15;82.91
37904;BME280;23738;50.422;18.758;2023-06-22T04:45:42;98792.62;;;21.18;82.88
37904;BME280;23738;50.422;18.758;2023-06-22T04:48:10;98788.48;;;21.26;83.25
37904;BME280;23738;50.422;18.758;2023-06-22T04:50:39;98794.98;;;21.40;83.43
37904;BME280;23738;50.422;18.758;2023-06-22T04:53:07;98792.30;;;21.59;83.71
37904;BME280;23738;50.422;18.758;2023-06-22T04:55:36;98792.63;;;21.81;83.98
37904;BME280;23738;50.422;18.758;2023-06-22T04:58:04;98790.11;;;22.03;84.02
37904;BME280;23738;50.422;18.758;2023-06-22T05:00:32;98790.02;;;22.19;83.82
37904;BME280;23738;50.422;18.758;2023-06-22T05:03:03;98792.98;;;22.35;83.60
37904;BME280;23738;50.422;18.758;2023-06-22T05:05:30;98796.70;;;22.50;83.58
37904;BME280;23738;50.422;18.758;2023-06-22T05:07:57;98804.73;;;22.72;83.64
37904;BME280;23738;50.422;18.758;2023-06-22T05:10:27;98803.79;;;22.89;83.55
37904;BME280;23738;50.422;18.758;2023-06-22T05:12:54;98804.40;;;23.02;82.95
37904;BME280;23738;50.422;18.758;2023-06-22T05:15:21;98809.81;;;23.15;83.05
37904;BME280;23738;50.422;18.758;2023-06-22T05:17:53;98809.48;;;23.33;82.86
37904;BME280;23738;50.422;18.758;2023-06-22T05:20:20;98810.23;;;23.55;82.70
37904;BME280;23738;50.422;18.758;2023-06-22T05:22:48;98812.16;;;23.78;82.56
37904;BME280;23738;50.422;18.758;2023-06-22T05:25:16;98811.24;;;23.96;81.96
37904;BME280;23738;50.422;18.758;2023-06-22T05:27:43;98805.95;;;24.15;81.70
37904;BME280;23738;50.422;18.758;2023-06-22T05:30:12;98805.29;;;24.27;81.23
37904;BME280;23738;50.422;18.758;2023-06-22T05:42:56;98820.45;;;24.84;79.40
37904;BME280;23738;50.422;18.758;2023-06-22T05:54:08;98816.52;;;24.32;77.82
37904;BME280;23738;50.422;18.758;2023-06-22T05:56:36;98814.45;;;24.23;78.04
37904;BME280;23738;50.422;18.758;2023-06-22T05:59:04;98819.86;;;24.40;78.20
37904;BME280;23738;50.422;18.758;2023-06-22T06:01:32;98823.79;;;24.61;78.33
37904;BME280;23738;50.422;18.758;2023-06-22T06:04:01;98822.28;;;24.86;78.21
37904;BME280;23738;50.422;18.758;2023-06-22T06:06:28;98827.94;;;25.16;78.05
37904;BME280;23738;50.422;18.758;2023-06-22T06:08:56;98830.59;;;25.43;77.74
37904;BME280;23738;50.422;18.758;2023-06-22T06:11:23;98829.91;;;25.70;77.35
37904;BME280;23738;50.422;18.758;2023-06-22T06:13:51;98831.58;;;25.95;76.82
37904;BME280;23738;50.422;18.758;2023-06-22T06:16:18;98827.08;;;26.17;75.67
37904;BME280;23738;50.422;18.758;2023-06-22T06:18:46;98832.94;;;26.29;75.09
37904;BME280;23738;50.422;18.758;2023-06-22T06:21:13;98830.40;;;26.46;74.87
37904;BME280;23738;50.422;18.758;2023-06-22T06:23:40;98828.02;;;26.68;74.22
37904;BME280;23738;50.422;18.758;2023-06-22T06:26:08;98828.52;;;26.86;73.55
37904;BME280;23738;50.422;18.758;2023-06-22T06:28:36;98824.39;;;27.00;72.83
37904;BME280;23738;50.422;18.758;2023-06-22T06:31:03;98824.55;;;27.17;72.38
37904;BME280;23738;50.422;18.758;2023-06-22T06:33:34;98829.58;;;27.32;71.68
37904;BME280;23738;50.422;18.758;2023-06-22T06:36:01;98834.66;;;27.43;70.49
37904;BME280;23738;50.422;18.758;2023-06-22T06:38:30;98830.55;;;27.49;69.41
37904;BME280;23738;50.422;18.758;2023-06-22T06:40:57;98826.33;;;27.60;69.52
37904;BME280;23738;50.422;18.758;2023-06-22T06:43:25;98832.00;;;27.73;68.90
37904;BME280;23738;50.422;18.758;2023-06-22T06:45:52;98833.41;;;27.89;68.32
37904;BME280;23738;50.422;18.758;2023-06-22T06:48:20;98831.73;;;28.03;67.28
37904;BME280;23738;50.422;18.758;2023-06-22T06:50:47;98831.98;;;28.11;66.71
37904;BME280;23738;50.422;18.758;2023-06-22T06:53:14;98834.30;;;28.23;65.86
37904;BME280;23738;50.422;18.758;2023-06-22T06:55:42;98835.48;;;28.37;65.93
37904;BME280;23738;50.422;18.758;2023-06-22T06:58:12;98837.70;;;28.50;65.51
37904;BME280;23738;50.422;18.758;2023-06-22T07:00:39;98833.14;;;28.66;65.07
37904;BME280;23738;50.422;18.758;2023-06-22T07:03:08;98834.54;;;28.82;64.33
37904;BME280;23738;50.422;18.758;2023-06-22T07:05:35;98837.94;;;28.96;64.07
37904;BME280;23738;50.422;18.758;2023-06-22T07:08:03;98834.10;;;29.09;63.42
37904;BME280;23738;50.422;18.758;2023-06-22T07:10:30;98836.94;;;29.21;63.08
37904;BME280;23738;50.422;18.758;2023-06-22T07:12:58;98842.95;;;29.38;62.62
37904;BME280;23738;50.422;18.758;2023-06-22T07:15:25;98843.31;;;29.52;62.44
37904;BME280;23738;50.422;18.758;2023-06-22T07:17:52;98847.75;;;29.68;61.57
37904;BME280;23738;50.422;18.758;2023-06-22T07:20:20;98848.78;;;29.76;61.38
37904;BME280;23738;50.422;18.758;2023-06-22T07:22:47;98849.91;;;29.85;60.15
37904;BME280;23738;50.422;18.758;2023-06-22T07:25:14;98851.64;;;29.90;60.60
37904;BME280;23738;50.422;18.758;2023-06-22T07:27:45;98857.98;;;30.06;59.89
37904;BME280;23738;50.422;18.758;2023-06-22T07:30:14;98849.13;;;30.18;59.54
37904;BME280;23738;50.422;18.758;2023-06-22T07:32:41;98846.70;;;30.30;59.09
37904;BME280;23738;50.422;18.758;2023-06-22T07:35:09;98849.69;;;30.37;58.37
37904;BME280;23738;50.422;18.758;2023-06-22T07:37:37;98851.58;;;30.44;57.87
37904;BME280;23738;50.422;18.758;2023-06-22T07:40:06;98852.55;;;30.56;57.52
37904;BME280;23738;50.422;18.758;2023-06-22T07:42:35;98846.14;;;30.67;57.67
37904;BME280;23738;50.422;18.758;2023-06-22T07:45:04;98856.69;;;30.81;57.08
37904;BME280;23738;50.422;18.758;2023-06-22T07:47:31;98859.32;;;30.93;56.71
37904;BME280;23738;50.422;18.758;2023-06-22T07:50:03;98858.67;;;31.05;56.33
37904;BME280;23738;50.422;18.758;2023-06-22T07:52:31;98859.42;;;31.04;55.18
37904;BME280;23738;50.422;18.758;2023-06-22T07:54:58;98860.81;;;31.04;54.90
37904;BME280;23738;50.422;18.758;2023-06-22T07:57:26;98861.02;;;31.11;54.69
37904;BME280;23738;50.422;18.758;2023-06-22T08:00:02;98861.69;;;31.19;53.98
37904;BME280;23738;50.422;18.758;2023-06-22T08:02:33;98866.24;;;31.16;54.12
37904;BME280;23738;50.422;18.758;2023-06-22T08:05:00;98867.23;;;31.27;53.90
37904;BME280;23738;50.422;18.758;2023-06-22T08:07:27;98866.44;;;31.32;52.83
37904;BME280;23738;50.422;18.758;2023-06-22T08:09:55;98868.58;;;31.33;53.32
37904;BME280;23738;50.422;18.758;2023-06-22T08:12:22;98871.17;;;31.45;53.14
37904;BME280;23738;50.422;18.758;2023-06-22T08:14:49;98872.70;;;31.63;53.33
37904;BME280;23738;50.422;18.758;2023-06-22T08:17:16;98873.38;;;31.82;52.54
37904;BME280;23738;50.422;18.758;2023-06-22T08:19:44;98876.46;;;31.91;52.36
37904;BME280;23738;50.422;18.758;2023-06-22T08:22:11;98881.62;;;32.07;52.30
37904;BME280;23738;50.422;18.758;2023-06-22T08:24:38;98885.06;;;32.23;51.53
37904;BME280;23738;50.422;18.758;2023-06-22T08:27:08;98886.51;;;32.24;50.70
37904;BME280;23738;50.422;18.758;2023-06-22T08:29:36;98889.86;;;32.02;50.91
37904;BME280;23738;50.422;18.758;2023-06-22T08:32:04;98891.70;;;31.79;50.86
37904;BME280;23738;50.422;18.758;2023-06-22T08:34:32;98890.27;;;31.75;50.90
37904;BME280;23738;50.422;18.758;2023-06-22T08:36:59;98887.84;;;31.92;51.06
37904;BME280;23738;50.422;18.758;2023-06-22T08:39:26;98887.21;;;32.12;50.95
37904;BME280;23738;50.422;18.758;2023-06-22T08:41:54;98888.73;;;32.33;50.58
37904;BME280;23738;50.422;18.758;2023-06-22T08:44:21;98889.08;;;32.55;50.59
37904;BME280;23738;50.422;18.758;2023-06-22T08:46:49;98889.95;;;32.77;50.27
37904;BME280;23738;50.422;18.758;2023-06-22T08:49:16;98894.16;;;32.83;49.45
37904;BME280;23738;50.422;18.758;2023-06-22T08:51:43;98892.73;;;32.77;49.48
37904;BME280;23738;50.422;18.758;2023-06-22T08:54:12;98892.90;;;32.77;49.28
37904;BME280;23738;50.422;18.758;2023-06-22T08:56:40;98888.12;;;32.85;48.93
37904;BME280;23738;50.422;18.758;2023-06-22T08:59:10;98882.46;;;32.99;48.62
37904;BME280;23738;50.422;18.758;2023-06-22T09:01:38;98880.58;;;33.11;48.87
37904;BME280;23738;50.422;18.758;2023-06-22T09:04:05;98884.80;;;33.31;48.44
37904;BME280;23738;50.422;18.758;2023-06-22T09:06:35;98881.52;;;33.26;47.13
37904;BME280;23738;50.422;18.758;2023-06-22T09:09:07;98880.55;;;33.16;47.17
37904;BME280;23738;50.422;18.758;2023-06-22T09:11:35;98877.32;;;33.07;47.13
37904;BME280;23738;50.422;18.758;2023-06-22T09:14:02;98875.20;;;33.16;47.11
37904;BME280;23738;50.422;18.758;2023-06-22T09:16:30;98874.85;;;33.23;47.00
37904;BME280;23738;50.422;18.758;2023-06-22T09:18:58;98876.29;;;33.20;46.35
37904;BME280;23738;50.422;18.758;2023-06-22T09:21:25;98868.57;;;33.15;45.91
37904;BME280;23738;50.422;18.758;2023-06-22T09:23:53;98865.56;;;33.08;45.47
37904;BME280;23738;50.422;18.758;2023-06-22T09:26:21;98859.53;;;32.94;45.77
37904;BME280;23738;50.422;18.758;2023-06-22T09:28:49;98857.39;;;32.95;45.93
37904;BME280;23738;50.422;18.758;2023-06-22T09:31:16;98860.20;;;33.09;46.08
37904;BME280;23738;50.422;18.758;2023-06-22T09:33:43;98854.04;;;33.23;45.76
37904;BME280;23738;50.422;18.758;2023-06-22T09:36:11;98851.66;;;33.36;46.20
37904;BME280;23738;50.422;18.758;2023-06-22T09:38:38;98855.45;;;33.57;45.65
37904;BME280;23738;50.422;18.758;2023-06-22T09:41:06;98851.23;;;33.74;46.00
37904;BME280;23738;50.422;18.758;2023-06-22T09:43:33;98845.34;;;33.83;45.76
37904;BME280;23738;50.422;18.758;2023-06-22T09:46:02;98843.64;;;33.99;45.82
37904;BME280;23738;50.422;18.758;2023-06-22T09:48:29;98848.48;;;34.20;45.64
37904;BME280;23738;50.422;18.758;2023-06-22T09:50:57;98837.33;;;34.35;45.24
37904;BME280;23738;50.422;18.758;2023-06-22T09:53:24;98834.23;;;34.47;44.72
37904;BME280;23738;50.422;18.758;2023-06-22T09:55:52;98826.05;;;34.49;44.70
37904;BME280;23738;50.422;18.758;2023-06-22T09:58:19;98827.77;;;34.63;44.66
37904;BME280;23738;50.422;18.758;2023-06-22T10:00:47;98823.08;;;34.72;43.27
37904;BME280;23738;50.422;18.758;2023-06-22T10:03:14;98823.65;;;34.61;43.37
37904;BME280;23738;50.422;18.758;2023-06-22T10:05:42;98823.36;;;34.56;43.16
37904;BME280;23738;50.422;18.758;2023-06-22T10:08:09;98825.50;;;34.60;43.40
37904;BME280;23738;50.422;18.758;2023-06-22T10:10:36;98824.11;;;34.70;43.16
37904;BME280;23738;50.422;18.758;2023-06-22T10:13:09;98822.52;;;34.83;43.22
37904;BME280;23738;50.422;18.758;2023-06-22T10:15:37;98819.88;;;34.99;42.88
37904;BME280;23738;50.422;18.758;2023-06-22T10:18:05;98823.80;;;35.11;42.44
37904;BME280;23738;50.422;18.758;2023-06-22T10:20:32;98826.43;;;35.19;42.27
37904;BME280;23738;50.422;18.758;2023-06-22T10:23:00;98823.59;;;35.26;41.80
37904;BME280;23738;50.422;18.758;2023-06-22T10:25:27;98819.09;;;35.32;41.88
37904;BME280;23738;50.422;18.758;2023-06-22T10:27:54;98816.94;;;35.34;41.61
37904;BME280;23738;50.422;18.758;2023-06-22T10:30:22;98817.50;;;35.45;41.59
37904;BME280;23738;50.422;18.758;2023-06-22T10:32:50;98819.11;;;35.53;41.61
37904;BME280;23738;50.422;18.758;2023-06-22T10:35:17;98814.67;;;35.65;41.24
37904;BME280;23738;50.422;18.758;2023-06-22T10:37:45;98815.09;;;35.70;40.73
37904;BME280;23738;50.422;18.758;2023-06-22T10:40:14;98817.19;;;35.69;40.65
37904;BME280;23738;50.422;18.758;2023-06-22T10:42:42;98819.64;;;35.76;40.70
37904;BME280;23738;50.422;18.758;2023-06-22T10:45:11;98819.32;;;35.86;40.38
37904;BME280;23738;50.422;18.758;2023-06-22T10:47:39;98825.05;;;35.86;40.21
37904;BME280;23738;50.422;18.758;2023-06-22T10:50:09;98825.36;;;35.48;39.85
37904;BME280;23738;50.422;18.758;2023-06-22T10:52:37;98830.06;;;35.01;40.20
37904;BME280;23738;50.422;18.758;2023-06-22T10:55:05;98825.98;;;34.77;40.25
37904;BME280;23738;50.422;18.758;2023-06-22T10:57:33;98827.27;;;34.78;40.58
37904;BME280;23738;50.422;18.758;2023-06-22T11:00:00;98822.39;;;34.86;40.61
37904;BME280;23738;50.422;18.758;2023-06-22T11:02:28;98822.27;;;35.01;40.94
37904;BME280;23738;50.422;18.758;2023-06-22T11:04:55;98819.31;;;35.08;40.55
37904;BME280;23738;50.422;18.758;2023-06-22T11:07:22;98815.44;;;35.06;40.08
37904;BME280;23738;50.422;18.758;2023-06-22T11:09:50;98811.16;;;34.98;40.18
37904;BME280;23738;50.422;18.758;2023-06-22T11:12:17;98809.91;;;35.02;39.97
37904;BME280;23738;50.422;18.758;2023-06-22T11:14:45;98798.70;;;34.99;39.70
37904;BME280;23738;50.422;18.758;2023-06-22T11:17:12;98799.59;;;34.87;39.54
37904;BME280;23738;50.422;18.758;2023-06-22T11:19:40;98804.07;;;34.73;39.84
37904;BME280;23738;50.422;18.758;2023-06-22T11:22:07;98798.78;;;34.80;40.52
37904;BME280;23738;50.422;18.758;2023-06-22T11:24:34;98797.99;;;34.95;39.97
37904;BME280;23738;50.422;18.758;2023-06-22T11:27:02;98798.48;;;34.92;39.91
37904;BME280;23738;50.422;18.758;2023-06-22T11:29:29;98797.17;;;34.91;39.48
37904;BME280;23738;50.422;18.758;2023-06-22T11:31:57;98791.60;;;34.81;39.38
37904;BME280;23738;50.422;18.758;2023-06-22T11:34:25;98796.14;;;34.81;39.69
37904;BME280;23738;50.422;18.758;2023-06-22T11:36:52;98793.02;;;34.87;39.98
37904;BME280;23738;50.422;18.758;2023-06-22T11:39:20;98791.03;;;34.87;39.47
37904;BME280;23738;50.422;18.758;2023-06-22T11:41:47;98792.23;;;34.81;39.49
37904;BME280;23738;50.422;18.758;2023-06-22T11:44:15;98787.82;;;34.89;39.45
37904;BME280;23738;50.422;18.758;2023-06-22T11:46:43;98778.86;;;34.92;38.51
37904;BME280;23738;50.422;18.758;2023-06-22T11:49:10;98785.23;;;35.00;39.48
37904;BME280;23738;50.422;18.758;2023-06-22T11:51:37;98779.46;;;35.17;39.54
37904;BME280;23738;50.422;18.758;2023-06-22T11:54:05;98780.69;;;35.38;39.69
37904;BME280;23738;50.422;18.758;2023-06-22T11:56:33;98773.89;;;35.56;39.61
37904;BME280;23738;50.422;18.758;2023-06-22T11:59:00;98772.80;;;35.67;38.90
37904;BME280;23738;50.422;18.758;2023-06-22T12:01:28;98772.39;;;35.69;38.38
37904;BME280;23738;50.422;18.758;2023-06-22T12:03:55;98767.05;;;35.63;38.54
37904;BME280;23738;50.422;18.758;2023-06-22T12:06:23;98762.96;;;35.66;38.92
37904;BME280;23738;50.422;18.758;2023-06-22T12:08:50;98761.98;;;35.61;37.59
37904;BME280;23738;50.422;18.758;2023-06-22T12:11:17;98755.10;;;35.21;38.08
37904;BME280;23738;50.422;18.758;2023-06-22T12:13:45;98760.92;;;34.86;38.44
37904;BME280;23738;50.422;18.758;2023-06-22T12:16:12;98751.60;;;34.57;38.86
37904;BME280;23738;50.422;18.758;2023-06-22T12:18:39;98747.79;;;34.49;39.32
37904;BME280;23738;50.422;18.758;2023-06-22T12:21:07;98748.58;;;34.46;39.35
37904;BME280;23738;50.422;18.758;2023-06-22T12:23:35;98747.22;;;34.52;39.38
37904;BME280;23738;50.422;18.758;2023-06-22T12:26:02;98747.85;;;34.67;39.53
37904;BME280;23738;50.422;18.758;2023-06-22T12:28:29;98743.89;;;34.86;39.87
37904;BME280;23738;50.422;18.758;2023-06-22T12:30:57;98735.76;;;35.03;39.70
37904;BME280;23738;50.422;18.758;2023-06-22T12:33:24;98733.02;;;35.17;39.61
37904;BME280;23738;50.422;18.758;2023-06-22T12:35:51;98726.55;;;35.26;39.06
37904;BME280;23738;50.422;18.758;2023-06-22T12:38:19;98728.79;;;35.32;39.03
37904;BME280;23738;50.422;18.758;2023-06-22T12:40:46;98726.44;;;35.40;38.79
37904;BME280;23738;50.422;18.758;2023-06-22T12:43:16;98726.47;;;35.45;38.82
37904;BME280;23738;50.422;18.758;2023-06-22T12:45:43;98723.02;;;35.55;38.69
37904;BME280;23738;50.422;18.758;2023-06-22T12:48:10;98721.90;;;35.58;37.81
37904;BME280;23738;50.422;18.758;2023-06-22T12:50:39;98717.95;;;35.53;37.31
37904;BME280;23738;50.422;18.758;2023-06-22T12:53:06;98717.98;;;35.52;37.59
37904;BME280;23738;50.422;18.758;2023-06-22T12:55:34;98713.84;;;35.49;37.20
37904;BME280;23738;50.422;18.758;2023-06-22T12:58:01;98714.30;;;35.52;38.00
37904;BME280;23738;50.422;18.758;2023-06-22T13:00:28;98712.92;;;35.57;37.77
37904;BME280;23738;50.422;18.758;2023-06-22T13:02:56;98709.42;;;35.54;37.29
37904;BME280;23738;50.422;18.758;2023-06-22T13:05:23;98706.31;;;35.55;37.74
37904;BME280;23738;50.422;18.758;2023-06-22T13:07:51;98704.02;;;35.66;38.02
37904;BME280;23738;50.422;18.758;2023-06-22T13:10:18;98702.77;;;35.70;37.36
37904;BME280;23738;50.422;18.758;2023-06-22T13:12:45;98702.79;;;35.68;37.18